Terminal Aerodrome Forecast
Issued by NWS Memphis, TN

Home | Current Version | Previous Version | Text Only | Print | Product List | Glossary On
Versions: 1 2 3 4 5 6 7 8 9 10 11 12 13 14 15 16 17
000
FTUS44 KMEG 100524
TAFJBR
TAF
KJBR 100524Z 1006/1106 31008KT P6SM SKC
     FM101000 29008KT P6SM FEW045 BKN100
     FM102000 22006KT P6SM BKN100
     FM110200 13006KT P6SM SCT100=

USA.gov is the U.S. government's official web portal to all federal, state and local government web resources and services.